Time;durP1;ratioP1;P1;durP2;ratioP2;P2;SDS_P1;SDS_P2;PMS_P1;PMS_P2;Temp;Humidity;BMP_temperature;BMP_pressure;BME280_temperature;BME280_humidity;BME280_pressure;Samples;Min_cycle;Max_cycle;Signal;HPM_P1;HPM_P2
2021/07/19 00:00:36;;;;;;;;;;;;;;;16.74;71.54;100919.79;1692901;83;20186;-75
2021/07/19 00:03:03;;;;;;;;;;;;;;;16.73;71.52;100922.00;1686912;83;20124;-75
2021/07/19 00:05:29;;;;;;;;;;;;;;;16.75;71.74;100921.50;1684764;83;20097;-75
2021/07/19 00:07:56;;;;;;;;;;;;;;;16.75;71.64;100925.87;1683384;83;20153;-75
2021/07/19 00:10:22;;;;;;;;;;;;;;;16.75;71.68;100925.87;1671127;84;20095;-75
2021/07/19 00:12:49;;;;;;;;;;;;;;;16.76;71.82;100924.95;1677277;84;20132;-75
2021/07/19 00:15:21;;;;;;;;;;;;;;;16.76;71.93;100928.87;1670666;84;20132;-75
2021/07/19 00:17:47;;;;;;;;;;;;;;;16.78;71.98;100934.44;1680059;84;20110;-75
2021/07/19 00:20:14;;;;;;;;;;;;;;;16.81;72.09;100934.78;1679424;84;20132;-75
2021/07/19 00:22:40;;;;;;;;;;;;;;;16.83;72.10;100932.97;1674106;84;20094;-75
2021/07/19 00:25:08;;;;;;;;;;;;;;;16.86;72.16;100926.33;1680161;84;20137;-75
2021/07/19 00:27:34;;;;;;;;;;;;;;;16.84;72.10;100930.30;1671112;84;20097;-75
2021/07/19 00:30:00;;;;;;;;;;;;;;;16.82;72.12;100931.27;1677731;84;20766;-75
2021/07/19 00:32:26;;;;;;;;;;;;;;;16.83;72.19;100931.66;1683833;84;20183;-75
2021/07/19 00:34:52;;;;;;;;;;;;;;;16.86;72.30;100932.86;1665595;84;20119;-75
2021/07/19 00:37:18;;;;;;;;;;;;;;;16.88;72.43;100940.19;1676294;84;20255;-75
2021/07/19 00:39:44;;;;;;;;;;;;;;;16.90;72.50;100938.82;1681789;84;20207;-75
2021/07/19 00:42:10;;;;;;;;;;;;;;;16.89;72.45;100941.89;1670753;84;20139;-75
2021/07/19 00:44:36;;;;;;;;;;;;;;;16.87;72.42;100943.70;1672802;84;20127;-75
2021/07/19 00:47:04;;;;;;;;;;;;;;;16.85;72.22;100944.22;1686026;83;20191;-75
2021/07/19 00:49:32;;;;;;;;;;;;;;;16.77;72.32;100944.94;1672571;84;20140;-76
2021/07/19 00:51:58;;;;;;;;;;;;;;;16.75;72.33;100945.45;1674573;84;20157;-76
2021/07/19 00:54:25;;;;;;;;;;;;;;;16.73;72.50;100947.27;1672623;84;20115;-76
2021/07/19 00:56:55;;;;;;;;;;;;;;;16.73;72.67;100952.03;1675977;84;20111;-75
2021/07/19 00:59:23;;;;;;;;;;;;;;;16.72;72.69;100949.03;1659903;84;20215;-75
2021/07/19 01:01:50;;;;;;;;;;;;;;;16.70;72.66;100953.91;1660537;84;20125;-75
2021/07/19 01:04:18;;;;;;;;;;;;;;;16.70;72.77;100949.98;1674557;84;20103;-75
2021/07/19 01:06:45;;;;;;;;;;;;;;;16.70;72.89;100950.84;1672517;84;20160;-75
2021/07/19 01:09:11;;;;;;;;;;;;;;;16.71;72.98;100949.08;1662091;84;20098;-75
2021/07/19 01:11:37;;;;;;;;;;;;;;;16.67;72.67;100948.34;1673850;84;20215;-75
2021/07/19 01:14:03;;;;;;;;;;;;;;;16.65;72.87;100950.16;1674266;84;20190;-75
2021/07/19 01:16:30;;;;;;;;;;;;;;;16.61;72.66;100948.55;1682664;84;20175;-75
2021/07/19 01:18:56;;;;;;;;;;;;;;;16.50;72.75;100959.83;1666733;84;20196;-75
2021/07/19 01:21:43;;;;;;;;;;;;;;;16.47;72.83;100959.48;1657163;84;20208;-75
2021/07/19 01:24:24;;;;;;;;;;;;;;;16.42;72.76;100957.48;1665478;84;20220;-75
2021/07/19 01:27:18;;;;;;;;;;;;;;;16.42;73.04;100952.71;1672264;84;20208;-75
2021/07/19 01:29:46;;;;;;;;;;;;;;;16.40;73.17;100948.00;1598304;89;20200;-75
2021/07/19 01:32:13;;;;;;;;;;;;;;;16.39;73.20;100953.67;1673478;84;20102;-75
2021/07/19 01:34:41;;;;;;;;;;;;;;;16.41;73.27;100955.78;1676171;84;20136;-75
2021/07/19 01:37:08;;;;;;;;;;;;;;;16.40;73.33;100955.37;1676064;84;20107;-75
2021/07/19 01:39:37;;;;;;;;;;;;;;;16.39;73.35;100952.37;1676253;84;20160;-75
2021/07/19 01:42:04;;;;;;;;;;;;;;;16.38;73.34;100955.87;1675073;84;20094;-75
2021/07/19 01:44:30;;;;;;;;;;;;;;;16.39;73.49;100957.59;1674731;84;20135;-75
2021/07/19 01:47:00;;;;;;;;;;;;;;;16.39;73.50;100951.06;1673585;84;20099;-75
2021/07/19 01:49:26;;;;;;;;;;;;;;;16.39;73.63;100948.45;1666660;84;20539;-75
2021/07/19 01:51:53;;;;;;;;;;;;;;;16.41;73.63;100946.64;1668326;84;20153;-75
2021/07/19 01:54:20;;;;;;;;;;;;;;;16.40;73.62;100946.69;1676198;84;20157;-75
2021/07/19 01:56:47;;;;;;;;;;;;;;;16.38;73.66;100945.44;1676256;84;20161;-75
2021/07/19 01:59:14;;;;;;;;;;;;;;;16.39;73.73;100951.06;1666893;84;20168;-75
2021/07/19 02:01:40;;;;;;;;;;;;;;;16.41;73.82;100947.09;1675773;84;20562;-75
2021/07/19 02:04:09;;;;;;;;;;;;;;;16.40;73.72;100946.69;1676256;84;20503;-75
2021/07/19 02:06:35;;;;;;;;;;;;;;;16.40;73.74;100942.78;1676179;84;20124;-75
2021/07/19 02:09:05;;;;;;;;;;;;;;;16.41;73.87;100945.78;1676132;84;20099;-75
2021/07/19 02:11:31;;;;;;;;;;;;;;;16.43;73.96;100948.75;1675353;84;20113;-75
2021/07/19 02:13:58;;;;;;;;;;;;;;;16.45;73.95;100944.78;1671874;84;20128;-75
2021/07/19 02:16:27;;;;;;;;;;;;;;;16.45;73.94;100950.00;1683952;84;20107;-75
2021/07/19 02:18:54;;;;;;;;;;;;;;;16.48;74.14;100953.35;1664048;84;20129;-75
2021/07/19 02:21:23;;;;;;;;;;;;;;;16.50;74.16;100946.77;1668505;84;20107;-75
2021/07/19 02:23:50;;;;;;;;;;;;;;;16.55;74.23;100945.70;1658088;84;20718;-75
2021/07/19 02:26:17;;;;;;;;;;;;;;;16.58;74.16;100950.42;1673930;84;20431;-75
2021/07/19 02:28:44;;;;;;;;;;;;;;;16.60;74.27;100947.30;1680910;84;20107;-75
2021/07/19 02:31:12;;;;;;;;;;;;;;;16.64;74.30;100954.09;1676090;84;20161;-75
2021/07/19 02:33:39;;;;;;;;;;;;;;;16.66;74.33;100964.06;1662758;84;20151;-75
2021/07/19 02:36:06;;;;;;;;;;;;;;;16.70;74.33;100960.44;1670895;84;20132;-75
2021/07/19 02:38:33;;;;;;;;;;;;;;;16.72;74.38;100962.53;1675106;84;20145;-75
2021/07/19 02:41:02;;;;;;;;;;;;;;;16.77;74.46;100964.53;1676204;84;20130;-75
2021/07/19 02:43:29;;;;;;;;;;;;;;;16.78;74.22;100967.09;1672698;84;20127;-75
2021/07/19 02:45:56;;;;;;;;;;;;;;;16.77;74.43;100965.38;1676066;84;20124;-75
2021/07/19 02:48:22;;;;;;;;;;;;;;;16.81;74.54;100964.37;1676142;84;20127;-75
2021/07/19 02:50:50;;;;;;;;;;;;;;;16.84;74.36;100968.63;1648740;84;20109;-75
2021/07/19 02:53:18;;;;;;;;;;;;;;;16.84;74.51;100967.32;1668636;84;20152;-75
2021/07/19 02:55:45;;;;;;;;;;;;;;;16.88;74.66;100968.47;1668439;84;20153;-75
2021/07/19 02:58:14;;;;;;;;;;;;;;;16.93;74.59;100971.36;1661451;84;20140;-75
2021/07/19 03:00:41;;;;;;;;;;;;;;;16.92;74.58;100966.59;1666592;84;20498;-75
2021/07/19 03:03:10;;;;;;;;;;;;;;;16.95;74.67;100970.85;1671202;84;20107;-75
2021/07/19 03:05:38;;;;;;;;;;;;;;;16.98;74.81;100965.52;1664359;84;20132;-75
2021/07/19 03:08:05;;;;;;;;;;;;;;;17.01;74.82;100963.64;1659520;84;20135;-75
2021/07/19 03:10:32;;;;;;;;;;;;;;;17.00;74.77;100968.47;1658269;85;20207;-75
2021/07/19 03:13:01;;;;;;;;;;;;;;;17.02;74.73;100979.72;1652098;85;20116;-75
2021/07/19 03:15:31;;;;;;;;;;;;;;;17.03;74.82;100982.73;1660863;85;20139;-75
2021/07/19 03:17:57;;;;;;;;;;;;;;;17.02;74.74;100984.94;1654972;85;20500;-75
2021/07/19 03:20:24;;;;;;;;;;;;;;;17.04;74.98;100985.73;1648913;85;20439;-75
2021/07/19 03:22:52;;;;;;;;;;;;;;;17.05;74.90;100988.75;1654858;85;20695;-75
2021/07/19 03:25:23;;;;;;;;;;;;;;;17.06;74.91;100994.38;1653158;85;20128;-75
2021/07/19 03:27:48;;;;;;;;;;;;;;;17.07;74.89;100990.85;1649296;85;20540;-75
2021/07/19 03:30:16;;;;;;;;;;;;;;;17.10;75.00;100996.42;1651993;85;20228;-75
2021/07/19 03:32:43;;;;;;;;;;;;;;;17.13;74.94;100997.16;1653853;85;20116;-75
2021/07/19 03:35:10;;;;;;;;;;;;;;;17.13;74.89;100995.00;1683433;83;20129;-75
2021/07/19 03:37:36;;;;;;;;;;;;;;;17.13;74.96;101007.61;1669182;84;20107;-75
2021/07/19 03:40:04;;;;;;;;;;;;;;;17.15;74.99;100999.72;1676311;83;20130;-75
2021/07/19 03:42:30;;;;;;;;;;;;;;;17.19;75.13;100999.97;1688158;83;20100;-75
2021/07/19 03:44:57;;;;;;;;;;;;;;;17.23;75.29;100991.11;1675590;83;38973;-75
2021/07/19 03:47:24;;;;;;;;;;;;;;;17.23;75.07;100995.48;1679093;83;20130;-75
2021/07/19 03:49:50;;;;;;;;;;;;;;;17.26;75.18;100991.45;1690750;83;20104;-75
2021/07/19 03:52:16;;;;;;;;;;;;;;;17.29;75.24;100998.72;1681105;83;20090;-75
2021/07/19 03:54:42;;;;;;;;;;;;;;;17.33;75.18;100995.53;1689950;83;20543;-75
2021/07/19 03:57:09;;;;;;;;;;;;;;;17.37;75.19;101004.97;1642271;85;20112;-75
2021/07/19 03:59:35;;;;;;;;;;;;;;;17.42;75.25;101001.72;1655178;85;20090;-75
2021/07/19 04:02:10;;;;;;;;;;;;;;;17.43;75.29;101001.67;1691202;83;20127;-75
2021/07/19 04:04:39;;;;;;;;;;;;;;;17.49;75.21;100996.20;1689785;83;20105;-75
2021/07/19 04:07:01;;;;;;;;;;;;;;;17.54;75.33;100986.88;1672330;83;20105;-75
2021/07/19 04:09:29;;;;;;;;;;;;;;;17.61;75.34;100995.34;1687544;83;20129;-75
2021/07/19 04:11:55;;;;;;;;;;;;;;;17.66;75.29;100996.05;1681114;83;20692;-75
2021/07/19 04:14:23;;;;;;;;;;;;;;;17.69;75.40;100988.89;1685566;83;20112;-75
2021/07/19 04:16:49;;;;;;;;;;;;;;;17.71;75.12;100980.53;1686838;83;20084;-75
2021/07/19 04:19:16;;;;;;;;;;;;;;;17.73;75.26;100986.55;1686728;83;20096;-75
2021/07/19 04:21:42;;;;;;;;;;;;;;;17.75;75.22;100989.11;1690807;83;20108;-75
2021/07/19 04:24:08;;;;;;;;;;;;;;;17.79;75.17;100994.62;1675341;83;20809;-75
2021/07/19 04:26:37;;;;;;;;;;;;;;;17.83;75.26;100998.36;1681532;83;20407;-75
2021/07/19 04:29:03;;;;;;;;;;;;;;;17.89;75.33;100994.65;1691155;83;20124;-75
2021/07/19 04:31:30;;;;;;;;;;;;;;;17.97;75.46;100996.50;1676329;83;20098;-75
2021/07/19 04:33:56;;;;;;;;;;;;;;;18.07;75.53;100996.98;1685248;83;20129;-75
2021/07/19 04:36:22;;;;;;;;;;;;;;;18.12;75.30;100997.19;1675841;83;20093;-75
2021/07/19 04:38:48;;;;;;;;;;;;;;;18.19;75.44;101000.41;1690851;83;20799;-75
2021/07/19 04:41:19;;;;;;;;;;;;;;;18.22;75.14;100995.02;1689315;83;20085;-75
2021/07/19 04:43:46;;;;;;;;;;;;;;;18.23;75.17;101003.26;1683217;83;20090;-75
2021/07/19 04:46:12;;;;;;;;;;;;;;;18.26;75.36;101007.06;1681722;83;20407;-75
2021/07/19 04:48:38;;;;;;;;;;;;;;;18.26;75.21;101012.75;1688510;83;20147;-75
2021/07/19 04:51:04;;;;;;;;;;;;;;;18.31;75.32;101013.41;1657555;85;20512;-75
2021/07/19 04:53:31;;;;;;;;;;;;;;;18.34;75.31;101015.91;1654349;85;20092;-75
2021/07/19 04:55:59;;;;;;;;;;;;;;;18.38;75.31;101010.48;1642326;85;20731;-75
2021/07/19 04:58:26;;;;;;;;;;;;;;;18.46;75.41;101003.61;1617999;87;20695;-75
2021/07/19 05:01:01;;;;;;;;;;;;;;;18.51;75.18;101001.65;1646741;86;20509;-75
2021/07/19 05:03:29;;;;;;;;;;;;;;;18.56;75.26;101002.30;1663421;84;20092;-75
2021/07/19 05:05:56;;;;;;;;;;;;;;;18.62;75.21;101004.70;1657554;85;20132;-75
2021/07/19 05:08:23;;;;;;;;;;;;;;;18.72;75.24;101003.81;1659049;84;20164;-75
2021/07/19 05:10:50;;;;;;;;;;;;;;;18.94;75.34;100993.23;1677915;84;20094;-75
2021/07/19 05:13:17;;;;;;;;;;;;;;;19.19;75.11;100995.15;1673148;84;20735;-75
2021/07/19 05:15:45;;;;;;;;;;;;;;;19.32;75.07;100991.48;1677908;84;20124;-75
2021/07/19 05:18:11;;;;;;;;;;;;;;;19.54;75.22;100988.28;1649302;84;20130;-75
2021/07/19 05:20:40;;;;;;;;;;;;;;;19.92;75.43;100988.19;1680079;84;20162;-74
2021/07/19 05:23:05;;;;;;;;;;;;;;;20.41;75.19;100991.86;1656994;85;20164;-74
2021/07/19 05:25:32;;;;;;;;;;;;;;;20.74;74.50;100984.88;1618676;87;20111;-74
2021/07/19 05:28:11;;;;;;;;;;;;;;;21.00;74.59;100991.83;1666295;85;20458;-74
2021/07/19 05:30:42;;;;;;;;;;;;;;;21.27;74.83;100994.80;1640368;86;20498;-74
2021/07/19 05:33:08;;;;;;;;;;;;;;;21.62;74.23;100992.83;1642721;85;20610;-75
2021/07/19 05:35:35;;;;;;;;;;;;;;;21.60;73.79;100991.59;1642352;85;20509;-75
2021/07/19 05:38:01;;;;;;;;;;;;;;;21.60;73.94;100996.02;1643597;85;20242;-75
2021/07/19 05:40:28;;;;;;;;;;;;;;;21.48;73.72;100998.85;1648036;85;21010;-75
2021/07/19 05:42:55;;;;;;;;;;;;;;;21.31;73.56;100995.86;1683628;83;20200;-75
2021/07/19 05:45:21;;;;;;;;;;;;;;;21.25;74.08;100996.19;1622076;86;20236;-75
2021/07/19 05:47:47;;;;;;;;;;;;;;;21.36;74.24;100999.06;1652723;85;20478;-75
2021/07/19 05:50:14;;;;;;;;;;;;;;;21.49;73.99;100988.71;1611727;87;20966;-75
2021/07/19 05:52:40;;;;;;;;;;;;;;;21.52;73.80;101000.38;1640214;86;20231;-75
2021/07/19 05:55:07;;;;;;;;;;;;;;;21.35;73.37;101000.45;1633928;86;20497;-75
2021/07/19 05:57:34;;;;;;;;;;;;;;;21.21;73.60;100999.04;1661969;85;20511;-75
2021/07/19 06:00:00;;;;;;;;;;;;;;;21.14;73.82;101005.09;1664439;85;20112;-75
2021/07/19 06:02:27;;;;;;;;;;;;;;;21.08;73.70;101001.47;1642463;86;20549;-75
2021/07/19 06:04:57;;;;;;;;;;;;;;;20.98;73.74;101002.89;1618811;87;20408;-75
2021/07/19 06:07:23;;;;;;;;;;;;;;;20.90;73.86;101001.12;1648584;86;20432;-75
2021/07/19 06:09:49;;;;;;;;;;;;;;;20.79;73.70;101006.98;1669398;82;20861;-75
2021/07/19 06:12:15;;;;;;;;;;;;;;;20.72;73.73;101008.23;1658624;85;20463;-75
2021/07/19 06:14:41;;;;;;;;;;;;;;;20.66;73.71;101007.23;1661048;85;20184;-75
2021/07/19 06:17:07;;;;;;;;;;;;;;;20.69;73.93;101007.07;1661742;85;20108;-76
2021/07/19 06:19:33;;;;;;;;;;;;;;;20.76;73.81;101008.45;1662919;85;20427;-75
2021/07/19 06:21:59;;;;;;;;;;;;;;;20.96;74.09;101004.29;1661005;85;20705;-75
2021/07/19 06:24:25;;;;;;;;;;;;;;;21.23;73.87;101004.62;1655953;85;20099;-75
2021/07/19 06:26:52;;;;;;;;;;;;;;;21.53;73.92;101007.81;1658133;85;20479;-75
2021/07/19 06:29:18;;;;;;;;;;;;;;;21.70;73.42;101014.30;1658992;85;20150;-75
2021/07/19 06:31:44;;;;;;;;;;;;;;;21.78;73.40;101011.62;1652797;85;20096;-75
2021/07/19 06:34:10;;;;;;;;;;;;;;;21.96;73.43;101014.98;1651709;85;20626;-75
2021/07/19 06:36:37;;;;;;;;;;;;;;;22.15;73.17;101016.13;1623421;86;20182;-75
2021/07/19 06:39:04;;;;;;;;;;;;;;;22.13;72.84;101018.00;1649798;85;20515;-76
2021/07/19 06:41:33;;;;;;;;;;;;;;;22.02;72.82;101012.02;1650567;85;20733;-75
2021/07/19 06:44:03;;;;;;;;;;;;;;;22.05;73.16;101013.17;1651495;85;20446;-75
2021/07/19 06:46:29;;;;;;;;;;;;;;;22.33;73.45;101016.84;1639850;86;20730;-75
2021/07/19 06:48:56;;;;;;;;;;;;;;;22.68;73.13;101017.37;1641939;86;20824;-75
2021/07/19 06:51:22;;;;;;;;;;;;;;;23.02;72.86;101014.39;1641467;86;20440;-76
2021/07/19 06:53:48;;;;;;;;;;;;;;;23.25;72.73;101017.40;1643786;86;20500;-76
2021/07/19 06:56:14;;;;;;;;;;;;;;;23.39;72.36;101018.70;1618015;87;20551;-75
2021/07/19 06:58:43;;;;;;;;;;;;;;;23.38;72.17;101012.58;1662584;85;20761;-75
2021/07/19 07:01:09;;;;;;;;;;;;;;;23.12;71.81;101013.35;1661883;85;20182;-75
2021/07/19 07:03:35;;;;;;;;;;;;;;;22.96;72.08;101018.72;1665245;85;20466;-75
2021/07/19 07:06:03;;;;;;;;;;;;;;;23.04;72.54;101012.50;1664749;85;20102;-76
2021/07/19 07:08:29;;;;;;;;;;;;;;;23.46;72.62;101010.74;1657134;85;20526;-76
2021/07/19 07:10:57;;;;;;;;;;;;;;;24.02;72.55;101009.73;1681505;84;20481;-76
2021/07/19 07:13:27;;;;;;;;;;;;;;;24.53;72.09;101019.11;1674575;84;20105;-76
2021/07/19 07:15:54;;;;;;;;;;;;;;;25.07;71.85;101010.50;1679840;84;20741;-76
2021/07/19 07:18:20;;;;;;;;;;;;;;;25.51;71.19;101010.43;1681346;84;20768;-76
2021/07/19 07:20:46;;;;;;;;;;;;;;;25.51;70.90;101009.59;1681104;84;20110;-76
2021/07/19 07:23:15;;;;;;;;;;;;;;;25.52;70.91;101004.18;1669358;84;20109;-76
2021/07/19 07:25:41;;;;;;;;;;;;;;;25.23;70.78;101010.73;1670926;84;20351;-76
2021/07/19 07:28:07;;;;;;;;;;;;;;;24.88;70.44;101011.88;1669331;84;20150;-76
2021/07/19 07:30:33;;;;;;;;;;;;;;;24.54;70.77;101010.22;1670151;84;20217;-76
2021/07/19 07:33:00;;;;;;;;;;;;;;;24.25;70.76;101007.37;1675226;84;20275;-76
2021/07/19 07:35:26;;;;;;;;;;;;;;;24.35;71.42;101000.08;1687558;84;20132;-76
2021/07/19 07:37:53;;;;;;;;;;;;;;;24.86;71.58;100999.23;1680394;83;20136;-76
2021/07/19 07:40:19;;;;;;;;;;;;;;;25.39;71.33;101002.08;1672934;84;20225;-76
2021/07/19 07:42:45;;;;;;;;;;;;;;;25.84;71.25;100999.70;1678861;84;20143;-76
2021/07/19 07:45:11;;;;;;;;;;;;;;;26.30;70.72;100995.77;1674468;84;20165;-76
2021/07/19 07:47:38;;;;;;;;;;;;;;;26.66;70.30;100992.95;1675755;84;20174;-76
2021/07/19 07:50:06;;;;;;;;;;;;;;;26.96;70.01;100992.89;1675788;84;20098;-76
2021/07/19 07:52:32;;;;;;;;;;;;;;;27.14;69.71;100990.09;1676656;84;20126;-76
2021/07/19 07:54:57;;;;;;;;;;;;;;;27.25;69.39;100986.58;1680549;84;20403;-76
2021/07/19 07:57:32;;;;;;;;;;;;;;;26.91;69.10;100989.23;1671984;84;20139;-76
2021/07/19 07:59:58;;;;;;;;;;;;;;;26.49;69.27;100993.91;1679578;84;20138;-76
2021/07/19 08:02:24;;;;;;;;;;;;;;;26.14;69.09;101000.52;1679577;84;20154;-76
2021/07/19 08:04:50;;;;;;;;;;;;;;;26.17;69.33;100996.31;1677155;84;20217;-76
2021/07/19 08:07:16;;;;;;;;;;;;;;;26.34;69.19;100994.59;1675392;84;20233;-76
2021/07/19 08:09:42;;;;;;;;;;;;;;;26.35;68.59;101001.59;1667237;84;20121;-76
2021/07/19 08:12:08;;;;;;;;;;;;;;;26.11;68.41;100998.10;1650804;85;20230;-76
2021/07/19 08:14:34;;;;;;;;;;;;;;;26.00;68.72;100997.09;1635116;86;20102;-76
2021/07/19 08:17:03;;;;;;;;;;;;;;;26.15;68.56;100996.44;1644398;84;20142;-76
2021/07/19 08:19:32;;;;;;;;;;;;;;;26.34;68.49;101002.08;1630698;84;20147;-76
2021/07/19 08:21:57;;;;;;;;;;;;;;;26.65;68.61;100997.05;1631778;86;20118;-76
2021/07/19 08:24:32;;;;;;;;;;;;;;;26.69;67.70;100999.83;1630200;85;20098;-76
2021/07/19 08:26:58;;;;;;;;;;;;;;;26.35;67.45;101006.41;1634728;86;20142;-76
2021/07/19 08:29:24;;;;;;;;;;;;;;;26.31;67.81;101004.11;1638393;86;20103;-76
2021/07/19 08:31:50;;;;;;;;;;;;;;;26.22;67.29;101006.09;1633912;86;20181;-76
2021/07/19 08:34:19;;;;;;;;;;;;;;;26.17;67.33;101010.42;1633834;86;20106;-76
2021/07/19 08:36:45;;;;;;;;;;;;;;;25.94;66.83;101007.34;1631519;86;20108;-76
2021/07/19 08:39:11;;;;;;;;;;;;;;;25.65;67.04;101006.82;1635464;86;20137;-76
2021/07/19 08:41:38;;;;;;;;;;;;;;;25.53;67.33;101000.58;1632773;86;20174;-76
2021/07/19 08:44:07;;;;;;;;;;;;;;;25.65;67.23;101006.34;1650271;85;20137;-76
2021/07/19 08:46:35;;;;;;;;;;;;;;;25.75;67.22;101006.52;1631489;86;20088;-78
2021/07/19 08:49:02;;;;;;;;;;;;;;;25.90;67.03;101000.09;1637869;86;20132;-78
2021/07/19 08:51:28;;;;;;;;;;;;;;;26.02;66.71;101011.08;1624104;86;20151;-77
2021/07/19 08:53:54;;;;;;;;;;;;;;;26.09;66.29;101014.60;1621991;86;20141;-77
2021/07/19 08:56:20;;;;;;;;;;;;;;;25.87;66.28;101012.24;1639730;86;20129;-77
2021/07/19 08:58:47;;;;;;;;;;;;;;;25.68;65.87;101009.25;1626651;86;20140;-77
2021/07/19 09:01:13;;;;;;;;;;;;;;;25.57;65.98;101002.52;1641164;86;20086;-77
2021/07/19 09:03:48;;;;;;;;;;;;;;;25.38;65.62;100999.06;1640870;86;20143;-77
2021/07/19 09:06:14;;;;;;;;;;;;;;;25.99;65.92;101006.03;1645333;86;20092;-77
2021/07/19 09:08:50;;;;;;;;;;;;;;;26.65;65.61;100999.70;1642039;86;20147;-77
2021/07/19 09:11:18;;;;;;;;;;;;;;;27.19;65.04;100995.03;1650278;84;20551;-77
2021/07/19 09:14:03;;;;;;;;;;;;;;;27.83;64.71;101000.46;1639860;86;20148;-77
2021/07/19 09:16:39;;;;;;;;;;;;;;;28.40;64.89;101000.57;1614300;86;20141;-77
2021/07/19 09:19:08;;;;;;;;;;;;;;;28.67;64.14;101006.17;1645873;85;20139;-77
2021/07/19 09:21:37;;;;;;;;;;;;;;;28.49;63.90;101001.12;1646932;85;20119;-77
2021/07/19 09:24:10;;;;;;;;;;;;;;;28.63;63.75;101006.92;1661289;85;20133;-77
2021/07/19 09:26:37;;;;;;;;;;;;;;;28.74;63.85;101007.83;1639061;85;20137;-77
2021/07/19 09:29:05;;;;;;;;;;;;;;;28.66;63.84;101003.16;1644135;85;20115;-77
2021/07/19 09:31:40;;;;;;;;;;;;;;;28.14;63.93;101001.40;1662260;84;20095;-77
2021/07/19 09:34:15;;;;;;;;;;;;;;;27.60;64.27;100985.06;1673864;84;20139;-77
2021/07/19 09:37:05;;;;;;;;;;;;;;;27.12;63.56;100997.81;1677970;84;20168;-77
2021/07/19 09:39:35;;;;;;;;;;;;;;;26.71;63.40;100997.42;1679258;84;20094;-77
2021/07/19 09:42:06;;;;;;;;;;;;;;;26.38;62.95;100998.71;1671793;84;20113;-77
2021/07/19 09:44:32;;;;;;;;;;;;;;;25.95;62.74;101001.08;1674434;84;20140;-77
2021/07/19 09:47:03;;;;;;;;;;;;;;;25.68;62.77;101002.14;1675953;84;20176;-77
2021/07/19 09:49:31;;;;;;;;;;;;;;;25.58;62.59;100997.11;1688963;84;20132;-77
2021/07/19 09:51:59;;;;;;;;;;;;;;;25.51;62.51;100991.89;1669192;84;20410;-78
2021/07/19 09:54:34;;;;;;;;;;;;;;;25.40;61.96;101003.30;1684396;84;20526;-75
2021/07/19 09:57:03;;;;;;;;;;;;;;;25.21;61.84;101001.58;1683338;84;20150;-74
2021/07/19 09:59:55;;;;;;;;;;;;;;;25.04;61.62;101000.60;1671923;84;20106;-74
2021/07/19 10:02:34;;;;;;;;;;;;;;;24.89;61.52;101004.31;1672137;83;20161;-74
2021/07/19 10:05:01;;;;;;;;;;;;;;;24.75;61.45;101009.23;1673713;84;20336;-74
2021/07/19 10:07:27;;;;;;;;;;;;;;;24.67;61.22;100995.69;1677247;84;20111;-74
2021/07/19 10:10:00;;;;;;;;;;;;;;;24.52;61.14;100991.45;1686358;83;20187;-74
2021/07/19 10:12:29;;;;;;;;;;;;;;;24.41;61.30;101004.95;1674863;84;20111;-73
2021/07/19 10:14:57;;;;;;;;;;;;;;;24.30;60.85;101000.86;1675284;84;20131;-73
2021/07/19 10:17:24;;;;;;;;;;;;;;;24.20;60.79;100999.74;1675261;84;20165;-73
2021/07/19 10:19:53;;;;;;;;;;;;;;;24.20;60.87;100994.45;1667648;84;20102;-73
2021/07/19 10:22:19;;;;;;;;;;;;;;;24.23;60.74;100994.26;1676429;84;20162;-73
2021/07/19 10:24:46;;;;;;;;;;;;;;;24.25;60.62;100989.75;1674138;84;20119;-73
2021/07/19 10:27:24;;;;;;;;;;;;;;;24.22;60.27;100987.27;1678506;84;20131;-73
2021/07/19 10:29:50;;;;;;;;;;;;;;;24.20;60.29;100990.50;1677262;83;20132;-73
2021/07/19 10:32:18;;;;;;;;;;;;;;;24.06;60.15;100995.38;1673747;84;20110;-73
2021/07/19 10:34:50;;;;;;;;;;;;;;;24.04;60.15;100996.42;1676143;84;20140;-73
2021/07/19 10:37:20;;;;;;;;;;;;;;;24.09;60.15;100995.64;1674187;84;20553;-73
2021/07/19 10:39:49;;;;;;;;;;;;;;;24.11;59.83;100993.75;1677488;84;20561;-73
2021/07/19 10:42:22;;;;;;;;;;;;;;;24.06;59.83;100991.41;1671304;83;20129;-73
2021/07/19 10:44:48;;;;;;;;;;;;;;;24.10;59.64;100982.81;1671108;84;20115;-73
2021/07/19 10:47:23;;;;;;;;;;;;;;;24.10;59.54;100990.26;1683483;84;20101;-73
2021/07/19 10:49:59;;;;;;;;;;;;;;;23.96;59.17;100992.12;1676988;84;20131;-73
2021/07/19 10:52:33;;;;;;;;;;;;;;;23.83;59.31;100993.42;1677425;84;20128;-74
2021/07/19 10:55:00;;;;;;;;;;;;;;;23.83;59.34;100988.61;1669615;84;20132;-74
2021/07/19 10:57:41;;;;;;;;;;;;;;;23.90;59.40;100989.91;1671629;84;20104;-74
2021/07/19 11:00:11;;;;;;;;;;;;;;;23.89;58.96;100989.06;1683091;84;20123;-74
2021/07/19 11:02:37;;;;;;;;;;;;;;;23.72;58.88;100990.16;1674645;84;20139;-74
2021/07/19 11:05:03;;;;;;;;;;;;;;;23.50;58.62;100987.16;1677584;84;20139;-74
2021/07/19 11:07:43;;;;;;;;;;;;;;;23.48;58.79;100980.29;1671929;84;20105;-74
2021/07/19 11:10:16;;;;;;;;;;;;;;;23.52;58.79;100983.95;1671028;84;20153;-75
2021/07/19 11:12:50;;;;;;;;;;;;;;;23.59;58.72;100982.65;1634994;86;20097;-74
2021/07/19 11:15:21;;;;;;;;;;;;;;;23.68;58.78;100973.29;1634901;86;20105;-73
2021/07/19 11:17:48;;;;;;;;;;;;;;;23.81;58.62;100970.70;1651443;85;20150;-73
2021/07/19 11:20:15;;;;;;;;;;;;;;;23.94;58.42;100965.80;1651829;85;20105;-73
2021/07/19 11:22:42;;;;;;;;;;;;;;;24.06;58.45;100970.75;1648331;85;20429;-73
2021/07/19 11:25:11;;;;;;;;;;;;;;;24.16;58.29;100981.55;1652487;85;20141;-73
2021/07/19 11:27:40;;;;;;;;;;;;;;;24.19;58.13;100978.70;1652124;85;20125;-73
2021/07/19 11:30:18;;;;;;;;;;;;;;;24.15;57.89;100976.74;1648015;85;20104;-73
2021/07/19 11:32:44;;;;;;;;;;;;;;;24.04;57.59;100974.81;1648180;85;20149;-73
2021/07/19 11:35:15;;;;;;;;;;;;;;;23.98;57.94;100976.54;1645823;85;20099;-73
2021/07/19 11:37:44;;;;;;;;;;;;;;;23.97;57.66;100968.72;1660523;85;20133;-73
2021/07/19 11:40:13;;;;;;;;;;;;;;;24.03;57.71;100966.52;1646826;85;20163;-73
2021/07/19 11:42:42;;;;;;;;;;;;;;;24.09;57.72;100967.91;1654672;85;20172;-73
2021/07/19 11:45:11;;;;;;;;;;;;;;;24.12;57.62;100963.73;1646979;85;20547;-73
2021/07/19 11:47:47;;;;;;;;;;;;;;;24.07;57.26;100969.33;1658002;85;20128;-73
2021/07/19 11:50:20;;;;;;;;;;;;;;;24.01;57.21;100966.24;1659735;85;20124;-73
2021/07/19 11:52:48;;;;;;;;;;;;;;;23.94;57.28;100970.23;1652395;85;20157;-73
2021/07/19 11:55:16;;;;;;;;;;;;;;;23.97;57.37;100963.44;1652718;85;20133;-73
2021/07/19 11:57:50;;;;;;;;;;;;;;;23.99;57.37;100958.89;1523930;84;10000364;-73
2021/07/19 12:00:26;;;;;;;;;;;;;;;24.08;57.59;100963.09;1651519;85;20221;-73
2021/07/19 12:03:03;;;;;;;;;;;;;;;24.18;57.19;100958.52;1645420;85;20256;-73
2021/07/19 12:05:30;;;;;;;;;;;;;;;24.27;57.20;100958.77;1639718;85;20212;-73
2021/07/19 12:08:00;;;;;;;;;;;;;;;24.21;56.98;100956.98;1644900;85;20228;-73
2021/07/19 12:10:26;;;;;;;;;;;;;;;24.16;57.17;100953.33;1646588;84;20194;-73
2021/07/19 12:12:52;;;;;;;;;;;;;;;24.15;56.98;100954.76;1673303;84;20223;-73
2021/07/19 12:15:20;;;;;;;;;;;;;;;24.15;57.06;100956.08;1672311;84;20510;-73
2021/07/19 12:17:53;;;;;;;;;;;;;;;24.05;56.72;100952.73;1679454;83;20196;-73
2021/07/19 12:20:22;;;;;;;;;;;;;;;24.00;57.10;100953.98;1679432;84;20176;-74
2021/07/19 12:22:52;;;;;;;;;;;;;;;23.84;56.75;100952.02;1679276;84;20135;-73
2021/07/19 12:25:22;;;;;;;;;;;;;;;23.78;56.89;100944.49;1678576;84;20103;-73
2021/07/19 12:28:01;;;;;;;;;;;;;;;23.79;57.04;100947.51;1671702;84;20110;-73
2021/07/19 12:30:30;;;;;;;;;;;;;;;23.81;56.95;100949.57;1677102;84;20137;-73
2021/07/19 12:32:56;;;;;;;;;;;;;;;23.85;56.78;100942.67;1671341;84;20173;-73
2021/07/19 12:35:27;;;;;;;;;;;;;;;23.88;56.68;100933.70;1672760;84;20154;-73
2021/07/19 12:37:54;;;;;;;;;;;;;;;23.93;56.55;100936.38;1680573;84;20156;-73
2021/07/19 12:40:22;;;;;;;;;;;;;;;24.00;56.45;100932.84;1685156;84;20100;-73